Weavertown, Pennsylvania
Current Conditions -  °F | °C
As of 3:54 AM on Wednesday 22 Oct 2014 (Local Time) from KPTW Reporting Station
Overcast Overcast  
Wind Chill: 53°   Ceiling: 1700
Heat Index: 53°   Visibility: 10mi
Dew Point: 49°   Wind: 9mph
Humidity: 86%   Direction: 10°N
Pressure: 29.88"   Gusts: NA
Location:  40.2688°N, 75.7411°W
Report Text: KPTW 220754Z AUTO 01008KT 10SM BKN017 OVC080 12/09 A2988 RMK AO2 SLP116 T01170094
Loading
Personal Weather Stations






























Interactive Weather Map
Tropical Storm Tracking
New forecast layout! Learn more

10-Day Weather Forecast

Advertisements
Track Severe Weather on mobile